Time;durP1;ratioP1;P1;durP2;ratioP2;P2;SDS_P1;SDS_P2;PMS_P1;PMS_P2;Temp;Humidity;BMP_temperature;BMP_pressure;BME280_temperature;BME280_humidity;BME280_pressure;Samples;Min_cycle;Max_cycle;Signal;HPM_P1;HPM_P2
2022/10/07 00:02:14;;;;;;;1999.90;999.90;;;12.40;99.90;;;;;;5051253;28;20455;-68
2022/10/07 00:04:45;;;;;;;1999.90;999.90;;;12.40;99.90;;;;;;5051634;28;20446;-68
2022/10/07 00:07:13;;;;;;;1999.90;999.90;;;12.60;99.90;;;;;;5051515;28;20597;-68
2022/10/07 00:09:40;;;;;;;1999.90;999.90;;;12.60;99.90;;;;;;5051367;28;20456;-68
2022/10/07 00:12:07;;;;;;;1999.90;999.90;;;12.60;99.90;;;;;;5051080;28;20459;-68
2022/10/07 00:14:33;;;;;;;1999.90;999.90;;;12.50;99.90;;;;;;5051300;28;20448;-68
2022/10/07 00:17:00;;;;;;;1999.90;999.90;;;12.50;99.90;;;;;;5051241;28;20444;-68
2022/10/07 00:19:27;;;;;;;1999.90;999.90;;;12.60;99.90;;;;;;5051144;28;20444;-68
2022/10/07 00:21:55;;;;;;;1999.90;999.90;;;12.60;99.90;;;;;;5050754;28;20466;-68
2022/10/07 00:24:22;;;;;;;1999.90;999.90;;;12.70;99.90;;;;;;5050937;28;20448;-68
2022/10/07 00:26:49;;;;;;;1999.90;999.90;;;12.70;99.90;;;;;;5054940;28;21013;-68
2022/10/07 00:29:15;;;;;;;1999.90;999.90;;;12.80;99.90;;;;;;5062269;28;20455;-68
2022/10/07 00:31:42;;;;;;;1999.90;999.90;;;12.80;99.90;;;;;;5064134;28;20446;-68
2022/10/07 00:34:11;;;;;;;1999.90;999.90;;;12.80;99.90;;;;;;5064634;28;20455;-68
2022/10/07 00:36:38;;;;;;;1999.90;999.90;;;12.80;99.90;;;;;;5051473;28;20475;-68
2022/10/07 00:39:08;;;;;;;1999.90;999.90;;;12.80;99.90;;;;;;5051099;28;21007;-68
2022/10/07 00:41:38;;;;;;;1999.90;999.90;;;12.90;99.90;;;;;;5050140;28;20559;-68
2022/10/07 00:44:36;;;;;;;1999.90;999.90;;;12.90;99.90;;;;;;5050852;28;20458;-68
2022/10/07 00:47:05;;;;;;;1999.90;999.90;;;12.90;99.90;;;;;;5032411;28;20501;-68
2022/10/07 00:49:40;;;;;;;1999.90;999.90;;;12.90;99.90;;;;;;5069107;28;21000;-68
2022/10/07 00:52:06;;;;;;;1999.90;999.90;;;13.00;99.90;;;;;;5069517;28;20810;-68
2022/10/07 00:54:36;;;;;;;1999.90;999.90;;;13.00;99.90;;;;;;5069938;28;20443;-68
2022/10/07 00:57:03;;;;;;;1999.90;999.90;;;13.00;99.90;;;;;;5069709;28;20451;-68
2022/10/07 00:59:30;;;;;;;1999.90;999.90;;;13.00;99.90;;;;;;5070325;28;20838;-68
2022/10/07 01:01:57;;;;;;;1999.90;999.90;;;13.00;99.90;;;;;;5065768;28;20463;-68
2022/10/07 01:04:23;;;;;;;1999.90;999.90;;;13.00;99.90;;;;;;5053486;28;20444;-68
2022/10/07 01:06:50;;;;;;;1999.90;999.90;;;13.00;99.90;;;;;;5050908;28;20488;-68
2022/10/07 01:09:19;;;;;;;1999.90;999.90;;;13.10;99.90;;;;;;5050734;28;20842;-68
2022/10/07 01:11:55;;;;;;;1999.90;999.90;;;13.10;99.90;;;;;;5050063;28;20948;-68
2022/10/07 01:14:33;;;;;;;1999.90;999.90;;;13.00;99.90;;;;;;5050248;28;20447;-68
2022/10/07 01:17:04;;;;;;;1999.90;999.90;;;13.00;99.90;;;;;;5050151;28;20439;-68
2022/10/07 01:20:01;;;;;;;1999.90;999.90;;;12.90;99.90;;;;;;5050180;28;20455;-68
2022/10/07 01:22:39;;;;;;;1999.90;999.90;;;12.90;99.90;;;;;;5059980;28;20455;-68
2022/10/07 01:25:22;;;;;;;1999.90;999.90;;;12.90;99.90;;;;;;5069222;28;20541;-68
2022/10/07 01:27:53;;;;;;;1999.90;999.90;;;13.00;99.90;;;;;;5069199;28;20489;-68
2022/10/07 01:30:20;;;;;;;1999.90;999.90;;;13.10;99.90;;;;;;5065296;28;20447;-69
2022/10/07 01:32:52;;;;;;;1999.90;999.90;;;13.10;99.90;;;;;;5050454;28;20942;-68
2022/10/07 01:35:23;;;;;;;1999.90;999.90;;;13.00;99.90;;;;;;5049483;28;20992;-68
2022/10/07 01:37:53;;;;;;;1999.90;999.90;;;13.00;99.90;;;;;;5050169;28;20870;-68
2022/10/07 01:40:24;;;;;;;1999.90;999.90;;;13.10;99.90;;;;;;5056337;28;21094;-68
2022/10/07 01:42:53;;;;;;;1999.90;999.90;;;13.10;99.90;;;;;;5049529;28;20444;-68
2022/10/07 01:45:22;;;;;;;1999.90;999.90;;;13.00;99.90;;;;;;5049590;28;20475;-68
2022/10/07 01:47:49;;;;;;;1999.90;999.90;;;12.90;99.90;;;;;;5049948;28;20487;-68
2022/10/07 01:50:20;;;;;;;1999.90;999.90;;;13.00;99.90;;;;;;5050042;28;20458;-68
2022/10/07 01:53:00;;;;;;;1999.90;999.90;;;12.90;99.90;;;;;;5049776;28;20447;-69
2022/10/07 01:55:40;;;;;;;1999.90;999.90;;;13.00;99.90;;;;;;5049781;28;20467;-68
2022/10/07 01:58:20;;;;;;;1999.90;999.90;;;13.00;99.90;;;;;;5049608;28;20448;-68
2022/10/07 02:00:52;;;;;;;1999.90;999.90;;;13.10;99.90;;;;;;5060716;28;20463;-68
2022/10/07 02:03:38;;;;;;;1999.90;999.90;;;13.10;99.90;;;;;;5062497;28;20969;-68
2022/10/07 02:06:10;;;;;;;1999.90;999.90;;;13.10;99.90;;;;;;5053536;28;20475;-68
2022/10/07 02:08:42;;;;;;;1999.90;999.90;;;13.10;99.90;;;;;;5053982;28;20452;-68
2022/10/07 02:11:14;;;;;;;1999.90;999.90;;;13.00;99.90;;;;;;5053589;28;20443;-68
2022/10/07 02:13:51;;;;;;;1999.90;999.90;;;13.10;99.90;;;;;;5053853;28;20452;-68
2022/10/07 02:16:23;;;;;;;1999.90;999.90;;;13.10;99.90;;;;;;5053352;28;20464;-68
2022/10/07 02:18:52;;;;;;;1999.90;999.90;;;13.10;99.90;;;;;;5066503;28;20485;-68
2022/10/07 02:21:23;;;;;;;1999.90;999.90;;;13.10;99.90;;;;;;5072849;28;20447;-68
2022/10/07 02:23:52;;;;;;;1999.90;999.90;;;13.10;99.90;;;;;;5053612;28;20439;-68
2022/10/07 02:26:22;;;;;;;1999.90;999.90;;;13.10;99.90;;;;;;5053440;28;20484;-68
2022/10/07 02:28:52;;;;;;;1999.90;999.90;;;13.00;99.90;;;;;;5053581;28;20447;-68
2022/10/07 02:31:24;;;;;;;1999.90;999.90;;;13.00;99.90;;;;;;5060458;28;20443;-68
2022/10/07 02:33:55;;;;;;;1999.90;999.90;;;13.00;99.90;;;;;;5053821;28;20943;-68
2022/10/07 02:36:26;;;;;;;1999.90;999.90;;;12.90;99.90;;;;;;5053130;28;20508;-68
2022/10/07 02:38:53;;;;;;;1999.90;999.90;;;13.00;99.90;;;;;;5053344;28;20448;-68
2022/10/07 02:41:33;;;;;;;1999.90;999.90;;;13.00;99.90;;;;;;5052858;28;20938;-68
2022/10/07 02:44:13;;;;;;;1999.90;999.90;;;12.90;99.90;;;;;;5053440;28;20873;-68
2022/10/07 02:46:45;;;;;;;1999.90;999.90;;;12.80;99.90;;;;;;5071124;28;20493;-68
2022/10/07 02:49:15;;;;;;;1999.90;999.90;;;12.80;99.90;;;;;;5072349;28;20546;-68
2022/10/07 02:51:47;;;;;;;1999.90;999.90;;;12.80;99.90;;;;;;5071777;28;20450;-68
2022/10/07 02:54:16;;;;;;;1999.90;999.90;;;12.80;99.90;;;;;;5059172;28;20527;-68
2022/10/07 02:56:44;;;;;;;1999.90;999.90;;;12.80;99.90;;;;;;5052809;28;20476;-68
2022/10/07 02:59:14;;;;;;;1999.90;999.90;;;12.90;99.90;;;;;;5052840;28;20447;-68
2022/10/07 03:01:45;;;;;;;1999.90;999.90;;;12.90;99.90;;;;;;5066783;28;20451;-68
2022/10/07 03:04:12;;;;;;;1999.90;999.90;;;13.00;99.90;;;;;;5060262;28;20459;-68
2022/10/07 03:06:40;;;;;;;1999.90;999.90;;;13.10;99.90;;;;;;5052558;28;20487;-68
2022/10/07 03:09:08;;;;;;;1999.90;999.90;;;13.10;99.90;;;;;;5052717;28;20976;-68
2022/10/07 03:11:36;;;;;;;1999.90;999.90;;;13.00;99.90;;;;;;5051742;28;20459;-68
2022/10/07 03:14:03;;;;;;;1999.90;999.90;;;12.90;99.90;;;;;;5052739;28;20452;-68
2022/10/07 03:16:31;;;;;;;1999.90;999.90;;;12.90;99.90;;;;;;5052714;28;20471;-68
2022/10/07 03:18:58;;;;;;;1999.90;999.90;;;12.80;99.90;;;;;;5052814;28;20454;-68
2022/10/07 03:21:25;;;;;;;1999.90;999.90;;;12.80;99.90;;;;;;5052537;28;20440;-68
2022/10/07 03:23:53;;;;;;;1999.90;999.90;;;12.70;99.90;;;;;;5052534;28;20462;-68
2022/10/07 03:26:19;;;;;;;1999.90;999.90;;;12.70;99.90;;;;;;5052271;28;20464;-68
2022/10/07 03:28:47;;;;;;;1999.90;999.90;;;12.80;99.90;;;;;;5052146;28;20444;-68
2022/10/07 03:31:15;;;;;;;1999.90;999.90;;;12.70;99.90;;;;;;5062271;28;20451;-68
2022/10/07 03:33:44;;;;;;;1999.90;999.90;;;12.80;99.90;;;;;;5053373;28;20456;-68
2022/10/07 03:36:12;;;;;;;1999.90;999.90;;;12.70;99.90;;;;;;5071360;28;20482;-68
2022/10/07 03:38:39;;;;;;;1999.90;999.90;;;12.80;99.90;;;;;;5052177;28;20452;-68
2022/10/07 03:41:05;;;;;;;1999.90;999.90;;;12.80;99.90;;;;;;5052014;28;20440;-68
2022/10/07 03:43:33;;;;;;;1999.90;999.90;;;12.80;99.90;;;;;;5051970;28;20808;-68
2022/10/07 03:46:01;;;;;;;1999.90;999.90;;;12.80;99.90;;;;;;5051718;28;20471;-68
2022/10/07 03:48:29;;;;;;;1999.90;999.90;;;12.80;99.90;;;;;;5051665;28;20495;-68
2022/10/07 03:50:58;;;;;;;1999.90;999.90;;;12.80;99.90;;;;;;5051862;28;20459;-68
2022/10/07 03:53:25;;;;;;;1999.90;999.90;;;12.80;99.90;;;;;;5051742;28;20450;-68
2022/10/07 03:55:53;;;;;;;1999.90;999.90;;;12.70;99.90;;;;;;5051692;28;20551;-68
2022/10/07 03:58:20;;;;;;;1999.90;999.90;;;12.80;99.90;;;;;;5051636;28;20451;-68
2022/10/07 04:00:47;;;;;;;1999.90;999.90;;;12.90;99.90;;;;;;5060608;28;20456;-68
2022/10/07 04:03:15;;;;;;;1999.90;999.90;;;12.80;99.90;;;;;;5059207;28;20482;-68
2022/10/07 04:05:42;;;;;;;1999.90;999.90;;;12.80;99.90;;;;;;5052630;28;20468;-68
2022/10/07 04:08:16;;;;;;;1999.90;999.90;;;12.80;99.90;;;;;;5051540;28;20483;-68
2022/10/07 04:10:42;;;;;;;1999.90;999.90;;;12.90;99.90;;;;;;5051476;28;20455;-68
2022/10/07 04:13:09;;;;;;;1999.90;999.90;;;12.90;99.90;;;;;;5051272;28;20444;-68
2022/10/07 04:15:36;;;;;;;1999.90;999.90;;;12.90;99.90;;;;;;5051068;28;20463;-68
2022/10/07 04:18:03;;;;;;;1999.90;999.90;;;12.90;99.90;;;;;;5051423;28;20677;-68
2022/10/07 04:20:30;;;;;;;1999.90;999.90;;;12.80;99.90;;;;;;5051392;28;20451;-68
2022/10/07 04:22:56;;;;;;;1999.90;999.90;;;12.80;99.90;;;;;;5050870;28;20921;-68
2022/10/07 04:25:34;;;;;;;1999.90;999.90;;;12.80;99.90;;;;;;5051088;28;20464;-68
2022/10/07 04:28:02;;;;;;;1999.90;999.90;;;12.80;99.90;;;;;;5050970;28;20562;-68
2022/10/07 04:30:32;;;;;;;1999.90;999.90;;;12.80;99.90;;;;;;5060536;28;20458;-68
2022/10/07 04:32:59;;;;;;;1999.90;999.90;;;12.80;99.90;;;;;;5059548;28;20455;-68
2022/10/07 04:35:26;;;;;;;1999.90;999.90;;;12.80;99.90;;;;;;5050987;28;20472;-69
2022/10/07 04:37:53;;;;;;;1999.90;999.90;;;12.70;99.90;;;;;;5050598;28;20455;-68
2022/10/07 04:40:21;;;;;;;1999.90;999.90;;;12.60;99.90;;;;;;5063141;28;20806;-68
2022/10/07 04:45:35;;;;;;;1999.90;999.90;;;12.60;99.90;;;;;;5063109;28;20466;-68
2022/10/07 04:48:02;;;;;;;1999.90;999.90;;;12.60;99.90;;;;;;5058200;28;20482;-66
2022/10/07 04:50:29;;;;;;;1999.90;999.90;;;12.60;99.90;;;;;;5062667;28;20833;-66
2022/10/07 04:52:56;;;;;;;1999.90;999.90;;;12.50;99.90;;;;;;5061135;28;20456;-66
2022/10/07 04:55:25;;;;;;;1999.90;999.90;;;12.50;99.90;;;;;;5063421;28;20998;-66
2022/10/07 04:57:53;;;;;;;1999.90;999.90;;;12.50;99.90;;;;;;5058082;28;20441;-66
2022/10/07 05:00:20;;;;;;;1999.90;999.90;;;12.50;99.90;;;;;;5064497;28;20443;-66
2022/10/07 05:02:49;;;;;;;1999.90;999.90;;;12.50;99.90;;;;;;5056060;28;20455;-66
2022/10/07 05:05:16;;;;;;;1999.90;999.90;;;12.50;99.90;;;;;;5055273;28;20463;-66
2022/10/07 05:07:43;;;;;;;1999.90;999.90;;;12.40;99.90;;;;;;5052721;28;20487;-66
2022/10/07 05:10:10;;;;;;;1999.90;999.90;;;12.50;99.90;;;;;;5054447;28;20447;-66
2022/10/07 05:12:38;;;;;;;1999.90;999.90;;;12.50;99.90;;;;;;5052765;28;20525;-65
2022/10/07 05:15:07;;;;;;;1999.90;999.90;;;12.50;99.90;;;;;;5057638;28;21025;-66
2022/10/07 05:17:34;;;;;;;1999.90;999.90;;;12.40;99.90;;;;;;5056355;28;20454;-65
2022/10/07 05:20:01;;;;;;;1999.90;999.90;;;12.50;99.90;;;;;;5057373;28;20440;-66
2022/10/07 05:22:27;;;;;;;1999.90;999.90;;;12.50;99.90;;;;;;5048241;28;20827;-66
2022/10/07 05:24:54;;;;;;;1999.90;999.90;;;12.50;99.90;;;;;;5065025;28;20458;-66
2022/10/07 05:27:21;;;;;;;1999.90;999.90;;;12.50;99.90;;;;;;5052033;28;20483;-66
2022/10/07 05:29:48;;;;;;;1999.90;999.90;;;12.50;99.90;;;;;;5054617;28;20491;-66
2022/10/07 05:32:17;;;;;;;1999.90;999.90;;;12.50;99.90;;;;;;5062294;28;20952;-66
2022/10/07 05:34:44;;;;;;;1999.90;999.90;;;12.50;99.90;;;;;;5049195;28;20510;-66
2022/10/07 05:37:11;;;;;;;1999.90;999.90;;;12.60;99.90;;;;;;5049774;28;20509;-66
2022/10/07 05:39:38;;;;;;;1999.90;999.90;;;12.60;99.90;;;;;;5049606;28;20938;-66
2022/10/07 05:42:05;;;;;;;1999.90;999.90;;;12.60;99.90;;;;;;5052248;28;20447;-66
2022/10/07 05:44:31;;;;;;;1999.90;999.90;;;12.50;99.90;;;;;;5065303;28;20450;-66
2022/10/07 05:46:59;;;;;;;1999.90;999.90;;;12.50;99.90;;;;;;5049531;28;20818;-66
2022/10/07 05:49:27;;;;;;;1999.90;999.90;;;12.50;99.90;;;;;;5049635;28;20455;-66
2022/10/07 05:51:54;;;;;;;1999.90;999.90;;;12.50;99.90;;;;;;5056163;28;20879;-66
2022/10/07 05:54:21;;;;;;;1999.90;999.90;;;12.60;99.90;;;;;;5064263;28;20995;-66
2022/10/07 05:56:48;;;;;;;1999.90;999.90;;;12.60;99.90;;;;;;5049248;28;20898;-66
2022/10/07 05:59:15;;;;;;;1999.90;999.90;;;12.60;99.90;;;;;;5049486;28;20444;-67
2022/10/07 06:01:42;;;;;;;1999.90;999.90;;;12.60;99.90;;;;;;5056449;28;20836;-65
2022/10/07 06:04:08;;;;;;;1999.90;999.90;;;12.60;99.90;;;;;;5056139;28;20835;-65
2022/10/07 06:06:37;;;;;;;1999.90;999.90;;;12.70;99.90;;;;;;5049681;28;20842;-65
2022/10/07 06:14:30;;;;;;;1999.90;999.90;;;12.80;99.90;;;;;;5049271;28;20924;-65
2022/10/07 06:16:56;;;;;;;1999.90;999.90;;;12.90;99.90;;;;;;5049654;28;20459;-65
2022/10/07 06:19:23;;;;;;;1999.90;999.90;;;12.90;99.90;;;;;;5049762;28;20440;-65
2022/10/07 06:21:51;;;;;;;1999.90;999.90;;;13.10;99.90;;;;;;5049041;28;20452;-65
2022/10/07 06:24:18;;;;;;;1999.90;999.90;;;13.20;99.90;;;;;;5052954;28;20843;-64
2022/10/07 06:26:45;;;;;;;1999.90;999.90;;;13.30;99.90;;;;;;5047364;28;20472;-65
2022/10/07 06:29:12;;;;;;;1999.90;999.90;;;13.50;99.90;;;;;;5047081;28;20829;-65
2022/10/07 06:31:39;;;;;;;1999.90;999.90;;;13.40;99.90;;;;;;5065396;28;20452;-65
2022/10/07 06:34:06;;;;;;;1999.90;999.90;;;13.50;99.90;;;;;;5050647;28;20455;-64
2022/10/07 06:36:32;;;;;;;1999.90;999.90;;;13.50;99.90;;;;;;5046995;28;20478;-65
2022/10/07 06:39:01;;;;;;;1999.90;999.90;;;13.50;99.90;;;;;;5047050;28;20440;-65
2022/10/07 06:41:27;;;;;;;1999.90;999.90;;;13.50;99.90;;;;;;5046806;28;20451;-65
2022/10/07 06:43:56;;;;;;;1999.90;999.90;;;13.50;99.90;;;;;;5047388;28;20836;-65
2022/10/07 06:46:23;;;;;;;1999.90;999.90;;;13.60;99.90;;;;;;5047454;28;20866;-65
2022/10/07 06:48:50;;;;;;;1999.90;999.90;;;13.80;99.90;;;;;;5050906;28;20490;-65
2022/10/07 06:51:19;;;;;;;1999.90;999.90;;;14.00;99.90;;;;;;5050234;28;20554;-65
2022/10/07 06:53:50;;;;;;;1999.90;999.90;;;14.20;99.90;;;;;;5064466;28;20447;-65
2022/10/07 06:56:19;;;;;;;1999.90;999.90;;;14.30;99.90;;;;;;5070436;28;21007;-64
2022/10/07 06:58:48;;;;;;;1999.90;999.90;;;14.40;99.90;;;;;;5070928;28;20454;-65
2022/10/07 07:01:15;;;;;;;1999.90;999.90;;;14.70;99.90;;;;;;5061123;28;20447;-65
2022/10/07 07:03:42;;;;;;;1999.90;999.90;;;14.90;99.90;;;;;;5056158;28;21039;-65
2022/10/07 07:06:10;;;;;;;1999.90;999.90;;;15.10;99.90;;;;;;5054458;28;20478;-65
2022/10/07 07:08:39;;;;;;;1999.90;999.90;;;15.20;99.90;;;;;;5050364;28;20541;-65
2022/10/07 07:11:34;;;;;;;1999.90;999.90;;;15.40;99.90;;;;;;5050471;28;20460;-64
2022/10/07 07:13:58;;;;;;;1999.90;999.90;;;15.60;99.90;;;;;;5067551;28;20536;-65
2022/10/07 07:16:26;;;;;;;1999.90;999.90;;;15.80;99.90;;;;;;5069985;28;20475;-64
2022/10/07 07:18:53;;;;;;;1999.90;999.90;;;15.60;99.90;;;;;;5070191;28;20454;-65
2022/10/07 07:21:21;;;;;;;1999.90;999.90;;;15.60;99.90;;;;;;5069856;28;20947;-65
2022/10/07 07:23:48;;;;;;;1999.90;999.90;;;15.70;99.90;;;;;;5070291;28;20979;-65
2022/10/07 07:26:14;;;;;;;1999.90;999.90;;;15.90;99.90;;;;;;5069928;28;20498;-65
2022/10/07 07:28:41;;;;;;;1999.90;999.90;;;16.10;99.90;;;;;;5070325;28;20841;-65
2022/10/07 07:31:12;;;;;;;1999.90;999.90;;;16.20;99.90;;;;;;5065816;28;20452;-65
2022/10/07 07:33:39;;;;;;;1999.90;999.90;;;16.20;99.90;;;;;;5060063;28;20502;-65
2022/10/07 07:36:15;;;;;;;1999.90;999.90;;;16.20;99.90;;;;;;5049937;28;20480;-65
2022/10/07 07:38:42;;;;;;;1999.90;999.90;;;16.20;99.90;;;;;;5050218;28;20458;-65
2022/10/07 07:41:08;;;;;;;1999.90;999.90;;;16.30;99.90;;;;;;5050272;28;20448;-65
2022/10/07 07:43:35;;;;;;;1999.90;999.90;;;16.40;99.90;;;;;;5049398;28;20458;-65
2022/10/07 07:46:03;;;;;;;1999.90;999.90;;;16.40;99.90;;;;;;5049664;28;20502;-65
2022/10/07 07:48:31;;;;;;;1999.90;999.90;;;16.50;99.90;;;;;;5049633;28;20491;-65
2022/10/07 07:50:59;;;;;;;1999.90;999.90;;;16.60;99.90;;;;;;5049777;28;20455;-65
2022/10/07 07:53:25;;;;;;;1999.90;999.90;;;16.60;99.90;;;;;;5049165;28;20483;-65
2022/10/07 07:55:53;;;;;;;1999.90;999.90;;;16.50;99.90;;;;;;5049926;28;20871;-65
2022/10/07 07:58:21;;;;;;;1999.90;999.90;;;16.60;99.90;;;;;;5048411;28;20448;-65
2022/10/07 08:00:58;;;;;;;1999.90;999.90;;;16.70;99.90;;;;;;5055894;28;20440;-65
2022/10/07 08:03:25;;;;;;;1999.90;999.90;;;16.70;99.90;;;;;;5055961;28;20663;-65
2022/10/07 08:05:53;;;;;;;1999.90;999.90;;;16.80;99.90;;;;;;5050843;28;20890;-65
2022/10/07 08:08:20;;;;;;;1999.90;999.90;;;17.00;99.90;;;;;;5050774;28;20542;-65
2022/10/07 08:10:47;;;;;;;1999.90;999.90;;;17.20;99.90;;;;;;5050472;28;20455;-65
2022/10/07 08:13:14;;;;;;;1999.90;999.90;;;17.40;99.90;;;;;;5050358;28;20474;-66
2022/10/07 08:15:41;;;;;;;1999.90;999.90;;;17.60;99.90;;;;;;5051160;28;20837;-65
2022/10/07 08:18:07;;;;;;;1999.90;999.90;;;17.70;99.90;;;;;;5050967;28;20945;-65
2022/10/07 08:20:36;;;;;;;1999.90;999.90;;;17.80;99.90;;;;;;5050723;28;20459;-64
2022/10/07 08:23:05;;;;;;;1999.90;999.90;;;17.90;99.90;;;;;;5057071;28;20447;-66
2022/10/07 08:25:31;;;;;;;1999.90;999.90;;;18.10;99.90;;;;;;5070762;28;20467;-66
2022/10/07 08:27:58;;;;;;;1999.90;999.90;;;18.30;99.90;;;;;;5070762;28;20533;-66
2022/10/07 08:30:25;;;;;;;1999.90;999.90;;;18.50;99.90;;;;;;5070982;28;20828;-66
2022/10/07 08:32:52;;;;;;;1999.90;999.90;;;18.60;99.90;;;;;;5070220;28;20869;-66
2022/10/07 08:35:18;;;;;;;1999.90;999.90;;;18.70;99.90;;;;;;5070553;28;20856;-66
2022/10/07 08:37:45;;;;;;;1999.90;999.90;;;18.70;99.90;;;;;;5070802;28;20637;-65
2022/10/07 08:40:17;;;;;;;1999.90;999.90;;;18.60;99.90;;;;;;5070555;28;20450;-65
2022/10/07 08:42:44;;;;;;;1999.90;999.90;;;18.80;99.90;;;;;;5070758;28;20486;-66
2022/10/07 08:45:18;;;;;;;1999.90;999.90;;;18.70;99.90;;;;;;5070464;28;20813;-66
2022/10/07 08:47:47;;;;;;;1999.90;999.90;;;18.80;99.90;;;;;;5070480;28;20455;-66
2022/10/07 08:50:16;;;;;;;1999.90;999.90;;;18.90;99.90;;;;;;5070139;28;20475;-65
2022/10/07 08:52:50;;;;;;;1999.90;999.90;;;19.10;99.90;;;;;;5069783;28;20450;-66
2022/10/07 08:55:24;;;;;;;1999.90;999.90;;;19.30;99.90;;;;;;5070253;28;20470;-66
2022/10/07 08:58:35;;;;;;;1999.90;999.90;;;19.30;99.90;;;;;;5070482;28;20443;-65
2022/10/07 09:01:16;;;;;;;1999.90;999.90;;;19.50;99.90;;;;;;5058893;28;20446;-65
2022/10/07 09:03:48;;;;;;;1999.90;999.90;;;19.50;99.90;;;;;;5070179;28;20443;-66
2022/10/07 09:06:23;;;;;;;1999.90;999.90;;;19.60;99.90;;;;;;5070149;28;20490;-65
2022/10/07 09:08:58;;;;;;;1999.90;999.90;;;19.60;99.90;;;;;;5069425;28;20482;-66
2022/10/07 09:11:26;;;;;;;1999.90;999.90;;;19.60;99.90;;;;;;5070092;28;20434;-66
2022/10/07 09:13:59;;;;;;;1999.90;999.90;;;19.70;99.90;;;;;;5070170;28;20443;-65
2022/10/07 09:16:30;;;;;;;1999.90;999.90;;;19.80;99.90;;;;;;5070085;28;20980;-66
2022/10/07 09:18:59;;;;;;;1999.90;999.90;;;19.90;99.90;;;;;;5069832;28;20902;-66
2022/10/07 09:21:34;;;;;;;1999.90;999.90;;;20.10;99.90;;;;;;5069501;28;20443;-66
2022/10/07 09:24:15;;;;;;;1999.90;999.90;;;20.40;99.90;;;;;;5070009;28;20450;-66
2022/10/07 09:26:43;;;;;;;1999.90;999.90;;;20.70;99.90;;;;;;5069821;28;20467;-65
2022/10/07 09:29:10;;;;;;;1999.90;999.90;;;20.90;99.90;;;;;;5069770;28;20851;-66
2022/10/07 09:31:38;;;;;;;1999.90;999.90;;;21.10;99.90;;;;;;5069421;28;20451;-64
2022/10/07 09:34:05;;;;;;;1999.90;999.90;;;21.20;99.90;;;;;;5069503;28;20447;-64
2022/10/07 09:36:32;;;;;;;1999.90;999.90;;;21.40;99.90;;;;;;5069845;28;20471;-65
2022/10/07 09:39:16;;;;;;;1999.90;999.90;;;21.60;99.90;;;;;;5070012;28;20438;-65
2022/10/07 09:41:44;;;;;;;1999.90;999.90;;;22.00;99.90;;;;;;5069575;28;20830;-65
2022/10/07 09:44:24;;;;;;;1999.90;999.90;;;22.30;99.90;;;;;;5069711;28;20443;-64
2022/10/07 09:46:54;;;;;;;1999.90;999.90;;;22.20;99.90;;;;;;5066211;28;20451;-64
2022/10/07 09:49:34;;;;;;;1999.90;999.90;;;22.00;99.90;;;;;;5067982;28;20570;-64
2022/10/07 09:52:02;;;;;;;1999.90;999.90;;;22.10;99.90;;;;;;5069597;28;20492;-64
2022/10/07 09:54:31;;;;;;;1999.90;999.90;;;22.20;99.90;;;;;;5066451;28;20889;-64
2022/10/07 09:57:02;;;;;;;1999.90;999.90;;;22.50;99.90;;;;;;5069480;28;20501;-64
2022/10/07 09:59:31;;;;;;;1999.90;999.90;;;22.70;99.90;;;;;;5069741;28;20496;-66
2022/10/07 10:02:00;;;;;;;1999.90;999.90;;;23.10;99.90;;;;;;5069304;28;20443;-64
2022/10/07 10:04:31;;;;;;;1999.90;999.90;;;23.40;99.90;;;;;;5069457;28;20439;-64
2022/10/07 10:07:03;;;;;;;1999.90;999.90;;;23.60;99.90;;;;;;5049377;28;20969;-65
2022/10/07 10:09:32;;;;;;;1999.90;999.90;;;23.50;99.90;;;;;;5054446;28;20490;-64
2022/10/07 10:12:12;;;;;;;1999.90;999.90;;;23.60;99.90;;;;;;5064615;28;20447;-64
2022/10/07 10:14:50;;;;;;;1999.90;999.90;;;23.80;99.90;;;;;;5062982;28;20508;-64
2022/10/07 10:17:22;;;;;;;1999.90;999.90;;;24.10;99.90;;;;;;5076175;28;20825;-64
2022/10/07 10:19:49;;;;;;;1999.90;999.90;;;24.30;99.90;;;;;;5068873;28;20492;-64
2022/10/07 10:22:25;;;;;;;1999.90;999.90;;;24.50;99.90;;;;;;5072754;28;20443;-64
2022/10/07 10:27:49;;;;;;;1999.90;999.90;;;24.90;99.90;;;;;;5063453;28;20476;-66
2022/10/07 10:30:20;;;;;;;1999.90;999.90;;;25.30;99.90;;;;;;5066722;28;20507;-66
2022/10/07 10:33:18;;;;;;;1999.90;999.90;;;25.60;99.90;;;;;;5071097;28;20811;-66
2022/10/07 10:35:55;;;;;;;1999.90;999.90;;;25.30;99.90;;;;;;5062663;28;20471;-66
2022/10/07 10:38:32;;;;;;;1999.90;999.90;;;25.50;99.90;;;;;;5062620;28;20519;-65
2022/10/07 10:41:05;;;;;;;1999.90;999.90;;;25.70;99.90;;;;;;5056979;28;20442;-65
2022/10/07 10:43:52;;;;;;;1999.90;999.90;;;25.80;99.90;;;;;;5070936;28;20454;-66
2022/10/07 10:46:36;;;;;;;1999.90;999.90;;;26.20;99.90;;;;;;5064045;28;21090;-66
2022/10/07 10:49:15;;;;;;;1999.90;999.90;;;26.50;99.90;;;;;;5068367;28;20497;-65
2022/10/07 10:51:54;;;;;;;1999.90;999.90;;;26.60;99.20;;;;;;5063829;28;20830;-65
2022/10/07 10:54:27;;;;;;;1999.90;999.90;;;27.00;99.00;;;;;;5052325;28;20447;-65
2022/10/07 10:57:01;;;;;;;1999.90;999.90;;;27.30;98.90;;;;;;5052518;28;20455;-65
2022/10/07 10:59:43;;;;;;;1999.90;999.90;;;27.80;98.10;;;;;;5052295;28;21021;-66
2022/10/07 11:02:35;;;;;;;1999.90;999.90;;;28.10;97.30;;;;;;5052203;28;20446;-66
2022/10/07 11:05:05;;;;;;;1999.90;999.90;;;28.20;96.40;;;;;;5018919;28;20468;-64
2022/10/07 11:07:35;;;;;;;1999.90;999.90;;;28.50;95.60;;;;;;5052379;28;20470;-65
2022/10/07 11:10:07;;;;;;;1999.90;999.90;;;28.40;95.70;;;;;;5052244;28;20856;-66
2022/10/07 11:12:39;;;;;;;1999.90;999.90;;;28.20;95.40;;;;;;5052130;28;20452;-64
2022/10/07 11:15:15;;;;;;;1999.90;999.90;;;28.20;95.50;;;;;;5052377;28;20460;-65
2022/10/07 11:17:43;;;;;;;1999.90;999.90;;;28.40;95.40;;;;;;5051658;28;20455;-65
2022/10/07 11:20:18;;;;;;;1999.90;999.90;;;28.70;95.30;;;;;;5051509;28;20467;-66
2022/10/07 11:22:49;;;;;;;1999.90;999.90;;;29.00;95.00;;;;;;5053098;28;20451;-65
2022/10/07 11:25:25;;;;;;;1999.90;999.90;;;29.00;93.60;;;;;;5069879;28;20477;-65
2022/10/07 11:27:55;;;;;;;1999.90;999.90;;;29.00;93.10;;;;;;5070034;28;20956;-66
2022/10/07 11:30:24;;;;;;;1999.90;999.90;;;29.20;93.50;;;;;;5071550;28;20471;-66
2022/10/07 11:32:56;;;;;;;1999.90;999.90;;;29.10;93.60;;;;;;5070416;28;20944;-65
2022/10/07 11:35:28;;;;;;;1999.90;999.90;;;29.20;92.90;;;;;;5070865;28;20848;-65
2022/10/07 11:38:00;;;;;;;1999.90;999.90;;;29.50;93.10;;;;;;5071851;28;20955;-66
2022/10/07 11:40:31;;;;;;;1999.90;999.90;;;29.60;92.40;;;;;;5068874;28;20439;-65
2022/10/07 11:43:06;;;;;;;1999.90;999.90;;;29.60;91.80;;;;;;5069756;28;20845;-66
2022/10/07 11:45:41;;;;;;;1999.90;999.90;;;29.90;92.30;;;;;;5067720;28;20875;-66
2022/10/07 11:48:12;;;;;;;1999.90;999.90;;;30.50;91.90;;;;;;5068178;28;20474;-65
2022/10/07 11:50:42;;;;;;;1999.90;999.90;;;30.60;91.30;;;;;;5070964;28;20498;-65
2022/10/07 11:53:19;;;;;;;1999.90;999.90;;;30.90;89.10;;;;;;5070713;28;20450;-66
2022/10/07 11:55:50;;;;;;;1999.90;999.90;;;30.90;89.80;;;;;;5064881;28;20524;-65
2022/10/07 11:58:25;;;;;;;1999.90;999.90;;;30.70;89.50;;;;;;5070281;28;20957;-65
2022/10/07 12:01:32;;;;;;;1999.90;999.90;;;30.80;90.50;;;;;;5071389;28;20901;-65
2022/10/07 12:04:32;;;;;;;1999.90;999.90;;;31.00;90.00;;;;;;5070795;28;20453;-66
2022/10/07 12:07:36;;;;;;;1999.90;999.90;;;31.70;89.00;;;;;;5060916;28;20827;-65
2022/10/07 12:10:23;;;;;;;1999.90;999.90;;;31.60;86.90;;;;;;5070988;28;20483;-66
2022/10/07 12:12:52;;;;;;;1999.90;999.90;;;31.70;85.10;;;;;;5068890;28;20451;-65
2022/10/07 12:15:34;;;;;;;1999.90;999.90;;;31.90;85.40;;;;;;5070878;28;20467;-66
2022/10/07 12:18:28;;;;;;;1999.90;999.90;;;32.00;82.70;;;;;;5070880;28;20526;-66
2022/10/07 12:21:02;;;;;;;1999.90;999.90;;;32.10;81.90;;;;;;5057868;28;20445;-65
2022/10/07 12:24:09;;;;;;;1999.90;999.90;;;31.80;83.90;;;;;;5068802;28;20533;-66
2022/10/07 12:26:47;;;;;;;1999.90;999.90;;;31.90;82.90;;;;;;5070114;28;20459;-66
2022/10/07 12:29:48;;;;;;;1999.90;999.90;;;32.30;80.90;;;;;;5061606;28;20868;-65